Time;durP1;ratioP1;P1;durP2;ratioP2;P2;SDS_P1;SDS_P2;PMS_P1;PMS_P2;Temp;Humidity;BMP_temperature;BMP_pressure;BME280_temperature;BME280_humidity;BME280_pressure;Samples;Min_cycle;Max_cycle;Signal;HPM_P1;HPM_P2
2022/07/10 00:01:23;;;;;;;;;;;;;;;;;;5077144;28;19915;-90
2022/07/10 00:03:49;;;;;;;;;;;;;;;;;;5064335;28;19920;-87
2022/07/10 00:06:15;;;;;;;;;;;;;;;;;;5051011;28;19967;-89
2022/07/10 00:08:42;;;;;;;;;;;;;;;;;;5049256;28;19917;-88
2022/07/10 00:11:08;;;;;;;;;;;;;;;;;;5037849;28;20327;-86
2022/07/10 00:13:34;;;;;;;;;;;;;;;;;;5036513;28;19917;-89
2022/07/10 00:16:01;;;;;;;;;;;;;;;;;;5036299;28;19928;-87
2022/07/10 00:18:26;;;;;;;;;;;;;;;;;;5034832;28;19917;-91
2022/07/10 00:20:51;;;;;;;;;;;;;;;;;;5036195;28;19917;-87
2022/07/10 00:23:17;;;;;;;;;;;;;;;;;;5036119;28;19917;-87
2022/07/10 00:25:42;;;;;;;;;;;;;;;;;;5068209;28;19928;-87
2022/07/10 00:28:08;;;;;;;;;;;;;;;;;;5034374;28;19924;-87
2022/07/10 00:30:33;;;;;;;;;;;;;;;;;;5035767;28;19917;-89
2022/07/10 00:32:59;;;;;;;;;;;;;;;;;;5034503;28;19975;-87
2022/07/10 00:35:26;;;;;;;;;;;;;;;;;;5035347;28;20031;-87
2022/07/10 00:37:51;;;;;;;;;;;;;;;;;;5034271;28;19921;-88
2022/07/10 00:40:17;;;;;;;;;;;;;;;;;;5034772;28;19924;-87
2022/07/10 00:42:42;;;;;;;;;;;;;;;;;;5038619;28;19923;-89
2022/07/10 00:45:08;;;;;;;;;;;;;;;;;;5035498;28;19940;-88
2022/07/10 00:47:33;;;;;;;;;;;;;;;;;;5035448;28;20400;-91
2022/07/10 00:49:58;;;;;;;;;;;;;;;;;;5035448;28;19924;-87
2022/07/10 00:52:24;;;;;;;;;;;;;;;;;;5035266;28;20432;-87
2022/07/10 00:54:53;;;;;;;;;;;;;;;;;;5035289;28;20292;-87
2022/07/10 00:57:20;;;;;;;;;;;;;;;;;;5033922;28;19917;-88
2022/07/10 00:59:46;;;;;;;;;;;;;;;;;;5035178;28;20003;-90
2022/07/10 01:02:12;;;;;;;;;;;;;;;;;;5035178;28;19953;-89
2022/07/10 01:04:38;;;;;;;;;;;;;;;;;;5033856;28;20412;-87
2022/07/10 01:07:03;;;;;;;;;;;;;;;;;;5033794;28;19956;-86
2022/07/10 01:09:29;;;;;;;;;;;;;;;;;;5033362;28;20008;-86
2022/07/10 01:11:56;;;;;;;;;;;;;;;;;;5034973;28;20020;-87
2022/07/10 01:14:21;;;;;;;;;;;;;;;;;;5034906;28;20498;-87
2022/07/10 01:16:47;;;;;;;;;;;;;;;;;;5033596;28;19995;-87
2022/07/10 01:19:12;;;;;;;;;;;;;;;;;;5034905;28;20395;-87
2022/07/10 01:21:37;;;;;;;;;;;;;;;;;;5033542;28;19924;-88
2022/07/10 01:24:04;;;;;;;;;;;;;;;;;;5033397;28;20459;-87
2022/07/10 01:26:30;;;;;;;;;;;;;;;;;;5033351;28;19925;-86
2022/07/10 01:28:55;;;;;;;;;;;;;;;;;;5033060;28;20327;-88
2022/07/10 01:31:24;;;;;;;;;;;;;;;;;;5034597;28;20392;-88
2022/07/10 01:33:50;;;;;;;;;;;;;;;;;;5033278;28;19917;-88
2022/07/10 01:36:16;;;;;;;;;;;;;;;;;;5034603;28;19925;-87
2022/07/10 01:38:41;;;;;;;;;;;;;;;;;;5034818;28;19917;-87
2022/07/10 01:41:08;;;;;;;;;;;;;;;;;;5038383;28;19917;-87
2022/07/10 01:43:35;;;;;;;;;;;;;;;;;;5037081;28;19923;-88
2022/07/10 01:46:00;;;;;;;;;;;;;;;;;;5034481;28;19928;-87
2022/07/10 01:48:25;;;;;;;;;;;;;;;;;;5034557;28;19917;-88
2022/07/10 01:50:51;;;;;;;;;;;;;;;;;;5035958;28;19917;-88
2022/07/10 01:53:16;;;;;;;;;;;;;;;;;;5034733;28;20403;-87
2022/07/10 01:55:42;;;;;;;;;;;;;;;;;;5032473;28;19924;-86
2022/07/10 01:58:07;;;;;;;;;;;;;;;;;;5032722;28;19917;-87
2022/07/10 02:00:32;;;;;;;;;;;;;;;;;;5033931;28;19917;-87
2022/07/10 02:05:42;;;;;;;;;;;;;;;;;;5054264;28;19974;-86
2022/07/10 02:08:07;;;;;;;;;;;;;;;;;;5056137;28;19916;-90
2022/07/10 02:10:33;;;;;;;;;;;;;;;;;;5055587;28;20005;-88
2022/07/10 02:12:58;;;;;;;;;;;;;;;;;;5052470;28;20388;-89
2022/07/10 02:15:24;;;;;;;;;;;;;;;;;;5052462;28;19923;-86
2022/07/10 02:17:49;;;;;;;;;;;;;;;;;;5053629;28;20323;-87
2022/07/10 02:20:15;;;;;;;;;;;;;;;;;;5052909;28;19921;-86
2022/07/10 02:22:41;;;;;;;;;;;;;;;;;;5054288;28;19995;-87
2022/07/10 02:25:06;;;;;;;;;;;;;;;;;;5055400;28;19929;-85
2022/07/10 02:27:32;;;;;;;;;;;;;;;;;;5053498;28;19921;-88
2022/07/10 02:29:57;;;;;;;;;;;;;;;;;;5053180;28;19921;-85
2022/07/10 02:32:22;;;;;;;;;;;;;;;;;;5053666;28;19917;-85
2022/07/10 02:34:48;;;;;;;;;;;;;;;;;;5053594;28;20008;-86
2022/07/10 02:37:13;;;;;;;;;;;;;;;;;;5053953;28;19921;-90
2022/07/10 02:39:41;;;;;;;;;;;;;;;;;;5055447;28;20373;-91
2022/07/10 02:42:07;;;;;;;;;;;;;;;;;;5057305;28;19924;-88
2022/07/10 02:44:32;;;;;;;;;;;;;;;;;;5056221;28;19917;-88
2022/07/10 02:46:58;;;;;;;;;;;;;;;;;;5055280;28;20011;-87
2022/07/10 02:49:23;;;;;;;;;;;;;;;;;;5056960;28;20324;-87
2022/07/10 02:51:51;;;;;;;;;;;;;;;;;;5053462;28;20219;-87
2022/07/10 02:54:16;;;;;;;;;;;;;;;;;;5053152;28;20388;-87
2022/07/10 02:56:42;;;;;;;;;;;;;;;;;;5051968;28;19917;-86
2022/07/10 02:59:07;;;;;;;;;;;;;;;;;;5053159;28;19924;-87
2022/07/10 03:01:32;;;;;;;;;;;;;;;;;;5051965;28;20015;-86
2022/07/10 03:03:58;;;;;;;;;;;;;;;;;;5056055;28;20003;-92
2022/07/10 03:06:23;;;;;;;;;;;;;;;;;;5055256;28;19967;-94
2022/07/10 03:08:52;;;;;;;;;;;;;;;;;;5053482;28;19917;-91
2022/07/10 03:11:17;;;;;;;;;;;;;;;;;;5054096;28;19985;-92
2022/07/10 03:13:42;;;;;;;;;;;;;;;;;;5054154;28;20375;-86
2022/07/10 03:16:08;;;;;;;;;;;;;;;;;;5051671;28;19942;-86
2022/07/10 03:18:33;;;;;;;;;;;;;;;;;;5054523;28;20389;-89
2022/07/10 03:20:59;;;;;;;;;;;;;;;;;;5056617;28;19925;-87
2022/07/10 03:23:25;;;;;;;;;;;;;;;;;;5054646;28;20511;-88
2022/07/10 03:25:51;;;;;;;;;;;;;;;;;;5053695;28;19916;-86
2022/07/10 03:28:16;;;;;;;;;;;;;;;;;;5052760;28;19924;-88
2022/07/10 03:30:42;;;;;;;;;;;;;;;;;;5053152;28;19925;-85
2022/07/10 03:33:07;;;;;;;;;;;;;;;;;;5056665;28;20015;-90
2022/07/10 03:35:33;;;;;;;;;;;;;;;;;;5060787;28;19943;-88
2022/07/10 03:37:58;;;;;;;;;;;;;;;;;;5058301;28;19943;-88
2022/07/10 03:40:24;;;;;;;;;;;;;;;;;;5057414;28;19924;-86
2022/07/10 03:42:49;;;;;;;;;;;;;;;;;;5057256;28;19923;-85
2022/07/10 03:45:15;;;;;;;;;;;;;;;;;;5057587;28;19921;-84
2022/07/10 03:47:40;;;;;;;;;;;;;;;;;;5057886;28;20054;-84
2022/07/10 03:50:06;;;;;;;;;;;;;;;;;;5056671;28;20402;-84
2022/07/10 03:52:31;;;;;;;;;;;;;;;;;;5058141;28;19916;-84
2022/07/10 03:54:58;;;;;;;;;;;;;;;;;;5058059;28;19917;-86
2022/07/10 04:00:07;;;;;;;;;;;;;;;;;;5057522;28;19998;-85
2022/07/10 04:02:33;;;;;;;;;;;;;;;;;;5056169;28;19975;-88
2022/07/10 04:04:59;;;;;;;;;;;;;;;;;;5057754;28;19924;-86
2022/07/10 04:07:25;;;;;;;;;;;;;;;;;;5056831;28;20309;-85
2022/07/10 04:09:50;;;;;;;;;;;;;;;;;;5058618;28;19917;-85
2022/07/10 04:12:15;;;;;;;;;;;;;;;;;;5059344;28;19975;-85
2022/07/10 04:14:41;;;;;;;;;;;;;;;;;;5058653;28;19917;-85
2022/07/10 04:17:06;;;;;;;;;;;;;;;;;;5070075;28;19905;-87
2022/07/10 04:19:32;;;;;;;;;;;;;;;;;;5075384;28;19925;-86
2022/07/10 04:21:57;;;;;;;;;;;;;;;;;;5073083;28;19928;-85
2022/07/10 04:24:23;;;;;;;;;;;;;;;;;;5067278;28;19917;-84
2022/07/10 04:26:48;;;;;;;;;;;;;;;;;;5058175;28;19917;-84
2022/07/10 04:29:13;;;;;;;;;;;;;;;;;;5056444;28;20019;-85
2022/07/10 04:31:39;;;;;;;;;;;;;;;;;;5056331;28;19943;-84
2022/07/10 04:34:04;;;;;;;;;;;;;;;;;;5054773;28;19967;-85
2022/07/10 04:36:30;;;;;;;;;;;;;;;;;;5056230;28;19971;-85
2022/07/10 04:38:55;;;;;;;;;;;;;;;;;;5056183;28;19916;-85
2022/07/10 04:41:21;;;;;;;;;;;;;;;;;;5056209;28;19977;-85
2022/07/10 04:43:46;;;;;;;;;;;;;;;;;;5055389;28;20012;-86
2022/07/10 04:46:12;;;;;;;;;;;;;;;;;;5056583;28;19929;-88
2022/07/10 04:48:37;;;;;;;;;;;;;;;;;;5056736;28;19921;-86
2022/07/10 04:51:03;;;;;;;;;;;;;;;;;;5054818;28;19916;-84
2022/07/10 04:53:28;;;;;;;;;;;;;;;;;;5058266;28;19974;-86
2022/07/10 04:55:53;;;;;;;;;;;;;;;;;;5059204;28;20280;-84
2022/07/10 04:58:19;;;;;;;;;;;;;;;;;;5056755;28;19913;-84
2022/07/10 05:00:44;;;;;;;;;;;;;;;;;;5055437;28;20011;-84
2022/07/10 05:03:10;;;;;;;;;;;;;;;;;;5037513;28;19970;-84
2022/07/10 05:05:35;;;;;;;;;;;;;;;;;;5055202;28;19920;-84
2022/07/10 05:08:01;;;;;;;;;;;;;;;;;;5055238;28;19921;-84
2022/07/10 05:10:27;;;;;;;;;;;;;;;;;;5055224;28;20268;-85
2022/07/10 05:12:52;;;;;;;;;;;;;;;;;;5055167;28;19917;-84
2022/07/10 05:15:18;;;;;;;;;;;;;;;;;;5054182;28;19920;-94
2022/07/10 05:17:43;;;;;;;;;;;;;;;;;;5055576;28;19970;-84
2022/07/10 05:20:09;;;;;;;;;;;;;;;;;;5055176;28;20019;-84
2022/07/10 05:22:35;;;;;;;;;;;;;;;;;;5055067;28;20184;-84
2022/07/10 05:25:00;;;;;;;;;;;;;;;;;;5054829;28;19920;-85
2022/07/10 05:27:26;;;;;;;;;;;;;;;;;;5054748;28;20323;-86
2022/07/10 05:29:52;;;;;;;;;;;;;;;;;;5054612;28;19921;-83
2022/07/10 05:32:17;;;;;;;;;;;;;;;;;;5087278;28;19916;-82
2022/07/10 05:34:43;;;;;;;;;;;;;;;;;;5051769;28;19920;-87
2022/07/10 05:37:09;;;;;;;;;;;;;;;;;;5041694;28;20293;-91
2022/07/10 05:39:35;;;;;;;;;;;;;;;;;;5046341;28;19921;-85
2022/07/10 05:42:00;;;;;;;;;;;;;;;;;;5035348;28;19917;-85
2022/07/10 05:44:26;;;;;;;;;;;;;;;;;;5054831;28;19921;-85
2022/07/10 05:46:51;;;;;;;;;;;;;;;;;;5046367;28;19932;-84
2022/07/10 05:49:16;;;;;;;;;;;;;;;;;;5046873;28;19924;-85
2022/07/10 05:51:42;;;;;;;;;;;;;;;;;;5065407;28;19925;-85
2022/07/10 05:54:08;;;;;;;;;;;;;;;;;;5070234;28;19917;-86
2022/07/10 05:56:33;;;;;;;;;;;;;;;;;;5052283;28;19917;-84
2022/07/10 05:58:59;;;;;;;;;;;;;;;;;;5068239;28;20285;-85
2022/07/10 06:01:25;;;;;;;;;;;;;;;;;;5056452;28;20323;-85
2022/07/10 06:03:51;;;;;;;;;;;;;;;;;;5053445;28;19955;-84
2022/07/10 06:06:17;;;;;;;;;;;;;;;;;;5063522;28;20368;-85
2022/07/10 06:08:42;;;;;;;;;;;;;;;;;;5066577;28;20003;-86
2022/07/10 06:11:08;;;;;;;;;;;;;;;;;;5042390;28;19925;-85
2022/07/10 06:13:33;;;;;;;;;;;;;;;;;;5044075;28;19928;-85
2022/07/10 06:15:59;;;;;;;;;;;;;;;;;;5039070;28;19921;-87
2022/07/10 06:18:24;;;;;;;;;;;;;;;;;;5051362;28;19934;-86
2022/07/10 06:20:50;;;;;;;;;;;;;;;;;;5053123;28;19917;-85
2022/07/10 06:23:15;;;;;;;;;;;;;;;;;;5057215;28;19924;-86
2022/07/10 06:25:41;;;;;;;;;;;;;;;;;;5069924;28;19923;-85
2022/07/10 06:28:06;;;;;;;;;;;;;;;;;;5074007;28;20395;-86
2022/07/10 06:30:31;;;;;;;;;;;;;;;;;;5074589;28;19920;-88
2022/07/10 06:32:57;;;;;;;;;;;;;;;;;;5073363;28;19917;-85
2022/07/10 06:35:22;;;;;;;;;;;;;;;;;;5075043;28;19962;-86
2022/07/10 06:37:47;;;;;;;;;;;;;;;;;;5074857;28;20284;-86
2022/07/10 06:40:16;;;;;;;;;;;;;;;;;;5074597;28;19916;-86
2022/07/10 06:42:42;;;;;;;;;;;;;;;;;;5074815;28;20015;-85
2022/07/10 06:45:07;;;;;;;;;;;;;;;;;;5075837;28;19954;-85
2022/07/10 06:50:17;;;;;;;;;;;;;;;;;;5050689;28;19959;-86
2022/07/10 06:52:42;;;;;;;;;;;;;;;;;;5051215;28;20287;-85
2022/07/10 06:55:08;;;;;;;;;;;;;;;;;;5049274;28;19970;-88
2022/07/10 06:57:34;;;;;;;;;;;;;;;;;;5056203;28;20003;-86
2022/07/10 06:59:59;;;;;;;;;;;;;;;;;;5076636;28;19932;-87
2022/07/10 07:02:25;;;;;;;;;;;;;;;;;;5076707;28;20371;-87
2022/07/10 07:04:50;;;;;;;;;;;;;;;;;;5076392;28;20359;-89
2022/07/10 07:07:16;;;;;;;;;;;;;;;;;;5077851;28;19917;-87
2022/07/10 07:09:44;;;;;;;;;;;;;;;;;;5079945;28;19987;-88
2022/07/10 07:12:10;;;;;;;;;;;;;;;;;;5070306;28;20395;-86
2022/07/10 07:14:35;;;;;;;;;;;;;;;;;;5036981;28;19944;-86
2022/07/10 07:17:05;;;;;;;;;;;;;;;;;;5053656;28;19924;-85
2022/07/10 07:19:31;;;;;;;;;;;;;;;;;;5058316;28;19986;-87
2022/07/10 07:24:44;;;;;;;;;;;;;;;;;;5049821;28;19928;-87
2022/07/10 07:27:10;;;;;;;;;;;;;;;;;;5064791;28;19921;-90
2022/07/10 07:29:38;;;;;;;;;;;;;;;;;;5054867;28;19929;-87
2022/07/10 07:32:04;;;;;;;;;;;;;;;;;;5054060;28;19925;-86
2022/07/10 07:34:30;;;;;;;;;;;;;;;;;;5062869;28;19928;-87
2022/07/10 07:36:56;;;;;;;;;;;;;;;;;;5049007;28;20308;-88
2022/07/10 07:39:22;;;;;;;;;;;;;;;;;;5054786;28;19916;-85
2022/07/10 07:41:47;;;;;;;;;;;;;;;;;;5068399;28;19921;-89
2022/07/10 07:44:13;;;;;;;;;;;;;;;;;;5061737;28;20015;-84
2022/07/10 07:46:38;;;;;;;;;;;;;;;;;;5058071;28;19917;-86
2022/07/10 07:49:04;;;;;;;;;;;;;;;;;;5057769;28;19924;-86
2022/07/10 07:51:29;;;;;;;;;;;;;;;;;;5057996;28;19921;-84
2022/07/10 07:53:55;;;;;;;;;;;;;;;;;;5059683;28;19969;-84
2022/07/10 07:56:20;;;;;;;;;;;;;;;;;;5058426;28;19921;-85
2022/07/10 07:58:45;;;;;;;;;;;;;;;;;;5058136;28;20418;-85
2022/07/10 08:01:11;;;;;;;;;;;;;;;;;;5055656;28;19968;-84
2022/07/10 08:03:36;;;;;;;;;;;;;;;;;;5056623;28;20031;-85
2022/07/10 08:06:02;;;;;;;;;;;;;;;;;;5055689;28;19924;-84
2022/07/10 08:08:27;;;;;;;;;;;;;;;;;;5054340;28;19916;-86
2022/07/10 08:10:52;;;;;;;;;;;;;;;;;;5076212;28;19924;-85
2022/07/10 08:13:18;;;;;;;;;;;;;;;;;;5059418;28;19952;-85
2022/07/10 08:15:43;;;;;;;;;;;;;;;;;;5058997;28;19940;-84
2022/07/10 08:18:09;;;;;;;;;;;;;;;;;;5076052;28;20391;-85
2022/07/10 08:20:34;;;;;;;;;;;;;;;;;;5076349;28;19916;-86
2022/07/10 08:23:00;;;;;;;;;;;;;;;;;;5075760;28;19939;-85
2022/07/10 08:25:25;;;;;;;;;;;;;;;;;;5078046;28;19920;-84
2022/07/10 08:27:51;;;;;;;;;;;;;;;;;;5077418;28;19962;-84
2022/07/10 08:30:17;;;;;;;;;;;;;;;;;;5078991;28;19920;-84
2022/07/10 08:32:42;;;;;;;;;;;;;;;;;;5078761;28;19923;-84
2022/07/10 08:35:08;;;;;;;;;;;;;;;;;;5063559;28;20027;-91
2022/07/10 08:37:38;;;;;;;;;;;;;;;;;;5066355;28;19976;-84
2022/07/10 08:40:10;;;;;;;;;;;;;;;;;;5068053;28;19964;-86
2022/07/10 08:42:35;;;;;;;;;;;;;;;;;;5055101;28;19990;-85
2022/07/10 08:45:01;;;;;;;;;;;;;;;;;;5045456;28;19917;-83
2022/07/10 08:47:31;;;;;;;;;;;;;;;;;;5048557;28;20011;-85
2022/07/10 08:49:56;;;;;;;;;;;;;;;;;;5049844;28;19917;-85
2022/07/10 08:52:22;;;;;;;;;;;;;;;;;;5047236;28;19927;-84
2022/07/10 08:54:47;;;;;;;;;;;;;;;;;;5046114;28;20372;-87
2022/07/10 08:57:15;;;;;;;;;;;;;;;;;;5038711;28;19931;-85
2022/07/10 08:59:40;;;;;;;;;;;;;;;;;;5055572;28;19916;-84
2022/07/10 09:02:05;;;;;;;;;;;;;;;;;;5057863;28;19974;-85
2022/07/10 09:04:31;;;;;;;;;;;;;;;;;;5055886;28;19917;-86
2022/07/10 09:06:56;;;;;;;;;;;;;;;;;;5054137;28;19967;-86
2022/07/10 09:09:23;;;;;;;;;;;;;;;;;;5054454;28;19917;-85
2022/07/10 09:11:55;;;;;;;;;;;;;;;;;;5055258;28;19956;-84
2022/07/10 09:14:23;;;;;;;;;;;;;;;;;;5054013;28;19917;-83
2022/07/10 09:16:50;;;;;;;;;;;;;;;;;;5055012;28;19917;-84
2022/07/10 09:19:19;;;;;;;;;;;;;;;;;;5055171;28;19921;-83
2022/07/10 09:21:49;;;;;;;;;;;;;;;;;;5054802;28;20338;-87
2022/07/10 09:24:19;;;;;;;;;;;;;;;;;;5055142;28;19917;-86
2022/07/10 09:26:47;;;;;;;;;;;;;;;;;;5055280;28;19939;-86
2022/07/10 09:29:14;;;;;;;;;;;;;;;;;;5054778;28;19921;-85
2022/07/10 09:31:51;;;;;;;;;;;;;;;;;;5055347;28;19916;-85
2022/07/10 09:34:17;;;;;;;;;;;;;;;;;;5056168;28;20284;-86
2022/07/10 09:36:43;;;;;;;;;;;;;;;;;;5053727;28;19917;-86
2022/07/10 09:39:08;;;;;;;;;;;;;;;;;;5053919;28;19917;-86
2022/07/10 09:41:34;;;;;;;;;;;;;;;;;;5055059;28;19917;-85
2022/07/10 09:44:01;;;;;;;;;;;;;;;;;;5054813;28;19920;-85
2022/07/10 09:46:28;;;;;;;;;;;;;;;;;;5055001;28;19917;-84
2022/07/10 09:49:22;;;;;;;;;;;;;;;;;;5054532;28;20007;-85
2022/07/10 09:51:48;;;;;;;;;;;;;;;;;;5045893;28;19917;-85
2022/07/10 09:54:13;;;;;;;;;;;;;;;;;;5054833;28;20339;-85
2022/07/10 09:56:43;;;;;;;;;;;;;;;;;;5054898;28;19921;-86
2022/07/10 09:59:10;;;;;;;;;;;;;;;;;;5054477;28;20273;-85
2022/07/10 10:01:36;;;;;;;;;;;;;;;;;;5054363;28;19917;-85
2022/07/10 10:04:03;;;;;;;;;;;;;;;;;;5055918;28;19917;-85
2022/07/10 10:06:29;;;;;;;;;;;;;;;;;;5054657;28;19916;-85
2022/07/10 10:09:07;;;;;;;;;;;;;;;;;;5054225;28;19967;-85
2022/07/10 10:11:35;;;;;;;;;;;;;;;;;;5054409;28;20392;-85
2022/07/10 10:14:01;;;;;;;;;;;;;;;;;;5054590;28;19921;-85
2022/07/10 10:16:27;;;;;;;;;;;;;;;;;;5054764;28;20426;-86
2022/07/10 10:21:36;;;;;;;;;;;;;;;;;;5054792;28;19923;-87
2022/07/10 10:24:02;;;;;;;;;;;;;;;;;;5054997;28;20319;-86
2022/07/10 10:26:28;;;;;;;;;;;;;;;;;;5054110;28;19913;-87
2022/07/10 10:28:54;;;;;;;;;;;;;;;;;;5058240;28;19920;-84
2022/07/10 10:31:21;;;;;;;;;;;;;;;;;;5055685;28;19963;-84
2022/07/10 10:33:47;;;;;;;;;;;;;;;;;;5053986;28;19928;-86
2022/07/10 10:36:14;;;;;;;;;;;;;;;;;;5056171;28;19917;-84
2022/07/10 10:38:46;;;;;;;;;;;;;;;;;;5053972;28;19916;-85
2022/07/10 10:41:33;;;;;;;;;;;;;;;;;;5056289;28;19991;-84
2022/07/10 10:44:16;;;;;;;;;;;;;;;;;;5055406;28;20011;-85
2022/07/10 10:46:54;;;;;;;;;;;;;;;;;;5057382;28;19921;-85
2022/07/10 10:49:20;;;;;;;;;;;;;;;;;;5057930;28;19917;-85
2022/07/10 10:51:55;;;;;;;;;;;;;;;;;;5057584;28;20430;-85
2022/07/10 10:54:20;;;;;;;;;;;;;;;;;;5057250;28;19917;-84
2022/07/10 10:57:05;;;;;;;;;;;;;;;;;;5059281;28;19946;-85
2022/07/10 10:59:50;;;;;;;;;;;;;;;;;;5057188;28;19916;-84
2022/07/10 11:02:25;;;;;;;;;;;;;;;;;;5056576;28;19921;-84
2022/07/10 11:04:50;;;;;;;;;;;;;;;;;;5054614;28;19924;-85
2022/07/10 11:07:34;;;;;;;;;;;;;;;;;;5053406;28;20307;-84
2022/07/10 11:10:18;;;;;;;;;;;;;;;;;;5055318;28;19913;-84
2022/07/10 11:13:02;;;;;;;;;;;;;;;;;;5054498;28;19973;-86
2022/07/10 11:15:30;;;;;;;;;;;;;;;;;;5053381;28;19916;-85
2022/07/10 11:17:56;;;;;;;;;;;;;;;;;;5053405;28;19948;-84
2022/07/10 11:20:22;;;;;;;;;;;;;;;;;;5055088;28;19917;-85
2022/07/10 11:23:00;;;;;;;;;;;;;;;;;;5056472;28;19924;-84
2022/07/10 11:25:35;;;;;;;;;;;;;;;;;;5055005;28;20376;-86
2022/07/10 11:28:04;;;;;;;;;;;;;;;;;;5054000;28;20372;-85
2022/07/10 11:30:42;;;;;;;;;;;;;;;;;;5053199;28;19917;-85
2022/07/10 11:33:08;;;;;;;;;;;;;;;;;;5055734;28;19917;-85
2022/07/10 11:35:33;;;;;;;;;;;;;;;;;;5055817;28;19917;-84
2022/07/10 11:37:59;;;;;;;;;;;;;;;;;;5053203;28;19917;-86
2022/07/10 11:40:24;;;;;;;;;;;;;;;;;;5051968;28;19917;-84
2022/07/10 11:42:50;;;;;;;;;;;;;;;;;;5054418;28;20410;-84
2022/07/10 11:45:23;;;;;;;;;;;;;;;;;;5052515;28;20316;-84
2022/07/10 11:47:49;;;;;;;;;;;;;;;;;;5053604;28;20372;-85
2022/07/10 11:50:15;;;;;;;;;;;;;;;;;;5053656;28;20004;-85
2022/07/10 11:52:40;;;;;;;;;;;;;;;;;;5055142;28;20365;-85
2022/07/10 11:55:15;;;;;;;;;;;;;;;;;;5059262;28;19967;-86
2022/07/10 11:57:41;;;;;;;;;;;;;;;;;;5057707;28;19924;-85
2022/07/10 12:00:20;;;;;;;;;;;;;;;;;;5059582;28;19925;-85
2022/07/10 12:02:45;;;;;;;;;;;;;;;;;;5057457;28;19953;-85
2022/07/10 12:05:29;;;;;;;;;;;;;;;;;;5059676;28;19916;-85
2022/07/10 12:07:54;;;;;;;;;;;;;;;;;;5060429;28;19944;-85
2022/07/10 12:10:20;;;;;;;;;;;;;;;;;;5059130;28;19924;-85
2022/07/10 12:12:46;;;;;;;;;;;;;;;;;;5060620;28;19921;-86
2022/07/10 12:15:30;;;;;;;;;;;;;;;;;;5060447;28;19917;-85
2022/07/10 12:17:55;;;;;;;;;;;;;;;;;;5059760;28;20020;-86
2022/07/10 12:20:20;;;;;;;;;;;;;;;;;;5059496;28;19964;-86
2022/07/10 12:22:46;;;;;;;;;;;;;;;;;;5060400;28;19923;-86
2022/07/10 12:25:11;;;;;;;;;;;;;;;;;;5061085;28;19917;-84
2022/07/10 12:27:41;;;;;;;;;;;;;;;;;;5058442;28;19917;-85
2022/07/10 12:30:11;;;;;;;;;;;;;;;;;;5058060;28;20012;-85
2022/07/10 12:32:37;;;;;;;;;;;;;;;;;;5059219;28;19917;-84
2022/07/10 12:35:03;;;;;;;;;;;;;;;;;;5057918;28;20341;-85
2022/07/10 12:37:28;;;;;;;;;;;;;;;;;;5067681;28;19900;-85
2022/07/10 12:39:54;;;;;;;;;;;;;;;;;;5073349;28;20281;-85
2022/07/10 12:42:29;;;;;;;;;;;;;;;;;;5067494;28;20325;-85
2022/07/10 12:45:08;;;;;;;;;;;;;;;;;;5062745;28;19917;-85
2022/07/10 12:47:43;;;;;;;;;;;;;;;;;;5056832;28;19924;-84
2022/07/10 12:50:08;;;;;;;;;;;;;;;;;;5056065;28;19923;-85
2022/07/10 12:52:35;;;;;;;;;;;;;;;;;;5055758;28;19916;-85
2022/07/10 12:55:15;;;;;;;;;;;;;;;;;;5055663;28;20020;-85
2022/07/10 12:58:00;;;;;;;;;;;;;;;;;;5057519;28;19928;-86
2022/07/10 13:00:27;;;;;;;;;;;;;;;;;;5055880;28;20011;-85
2022/07/10 13:03:06;;;;;;;;;;;;;;;;;;5059127;28;20026;-85
2022/07/10 13:05:38;;;;;;;;;;;;;;;;;;5058399;28;19913;-89
2022/07/10 13:08:16;;;;;;;;;;;;;;;;;;5057570;28;19917;-86
2022/07/10 13:10:43;;;;;;;;;;;;;;;;;;5055568;28;19913;-88
2022/07/10 13:13:08;;;;;;;;;;;;;;;;;;5055053;28;20372;-85
2022/07/10 13:15:39;;;;;;;;;;;;;;;;;;5054884;28;19920;-84
2022/07/10 13:18:05;;;;;;;;;;;;;;;;;;5056576;28;19917;-85
2022/07/10 13:20:30;;;;;;;;;;;;;;;;;;5056332;28;19939;-85
2022/07/10 13:22:55;;;;;;;;;;;;;;;;;;5054847;28;19921;-85
2022/07/10 13:25:21;;;;;;;;;;;;;;;;;;5055227;28;19970;-86
2022/07/10 13:27:46;;;;;;;;;;;;;;;;;;5054791;28;19920;-85
2022/07/10 13:30:12;;;;;;;;;;;;;;;;;;5055178;28;19928;-89
2022/07/10 13:32:37;;;;;;;;;;;;;;;;;;5054710;28;19968;-86
2022/07/10 13:35:03;;;;;;;;;;;;;;;;;;5086869;28;19921;-85
2022/07/10 13:37:29;;;;;;;;;;;;;;;;;;5054574;28;19928;-86
2022/07/10 13:39:55;;;;;;;;;;;;;;;;;;5086810;28;19916;-85
2022/07/10 13:42:20;;;;;;;;;;;;;;;;;;5054435;28;19916;-87
2022/07/10 13:44:46;;;;;;;;;;;;;;;;;;5058951;28;19913;-85
2022/07/10 13:47:11;;;;;;;;;;;;;;;;;;5055518;28;19982;-85
2022/07/10 13:49:37;;;;;;;;;;;;;;;;;;5058909;28;19917;-85
2022/07/10 13:52:02;;;;;;;;;;;;;;;;;;5055389;28;19913;-85
2022/07/10 13:54:27;;;;;;;;;;;;;;;;;;5054278;28;20268;-86
2022/07/10 13:56:53;;;;;;;;;;;;;;;;;;5053176;28;19963;-85
2022/07/10 13:59:18;;;;;;;;;;;;;;;;;;5052371;28;19916;-88
2022/07/10 14:01:44;;;;;;;;;;;;;;;;;;5056656;28;19924;-85
2022/07/10 14:04:09;;;;;;;;;;;;;;;;;;5060840;28;19916;-85
2022/07/10 14:06:35;;;;;;;;;;;;;;;;;;5059567;28;20308;-85
2022/07/10 14:09:00;;;;;;;;;;;;;;;;;;5059300;28;19917;-84
2022/07/10 14:11:27;;;;;;;;;;;;;;;;;;5056609;28;19921;-87
2022/07/10 14:13:52;;;;;;;;;;;;;;;;;;5053119;28;19917;-84
2022/07/10 14:16:18;;;;;;;;;;;;;;;;;;5053551;28;19913;-84
2022/07/10 14:18:44;;;;;;;;;;;;;;;;;;5055982;28;20379;-85
2022/07/10 14:21:10;;;;;;;;;;;;;;;;;;5057174;28;20287;-85
2022/07/10 14:23:37;;;;;;;;;;;;;;;;;;5055140;28;20035;-84
2022/07/10 14:26:03;;;;;;;;;;;;;;;;;;5054279;28;19917;-85
2022/07/10 14:28:29;;;;;;;;;;;;;;;;;;5053671;28;20391;-85
2022/07/10 14:30:54;;;;;;;;;;;;;;;;;;5054117;28;19916;-84
2022/07/10 14:33:20;;;;;;;;;;;;;;;;;;5053794;28;19917;-85
2022/07/10 14:35:45;;;;;;;;;;;;;;;;;;5053868;28;20376;-83
2022/07/10 14:38:11;;;;;;;;;;;;;;;;;;5055865;28;19917;-84
2022/07/10 14:40:37;;;;;;;;;;;;;;;;;;5053920;28;19917;-92
2022/07/10 14:43:03;;;;;;;;;;;;;;;;;;5057600;28;19921;-84
2022/07/10 14:45:30;;;;;;;;;;;;;;;;;;5056444;28;19940;-85
2022/07/10 14:47:57;;;;;;;;;;;;;;;;;;5057382;28;19946;-86
2022/07/10 14:50:23;;;;;;;;;;;;;;;;;;5058004;28;19917;-84
2022/07/10 14:52:50;;;;;;;;;;;;;;;;;;5058484;28;20345;-84
2022/07/10 14:55:15;;;;;;;;;;;;;;;;;;5056775;28;19925;-84
2022/07/10 14:57:41;;;;;;;;;;;;;;;;;;5053552;28;19975;-85
2022/07/10 15:00:06;;;;;;;;;;;;;;;;;;5056942;28;19941;-85
2022/07/10 15:02:32;;;;;;;;;;;;;;;;;;5058426;28;19971;-85
2022/07/10 15:04:57;;;;;;;;;;;;;;;;;;5056473;28;19979;-85
2022/07/10 15:07:23;;;;;;;;;;;;;;;;;;5056027;28;20008;-85
2022/07/10 15:09:48;;;;;;;;;;;;;;;;;;5056349;28;19978;-84
2022/07/10 15:12:13;;;;;;;;;;;;;;;;;;5044508;28;19952;-85
2022/07/10 15:14:39;;;;;;;;;;;;;;;;;;5058201;28;19925;-84
2022/07/10 15:17:04;;;;;;;;;;;;;;;;;;5061066;28;19960;-85
2022/07/10 15:19:30;;;;;;;;;;;;;;;;;;5063969;28;19929;-85
2022/07/10 15:21:55;;;;;;;;;;;;;;;;;;5058470;28;19928;-85
2022/07/10 15:24:21;;;;;;;;;;;;;;;;;;5068119;28;19916;-85
2022/07/10 15:26:46;;;;;;;;;;;;;;;;;;5069317;28;19971;-85
2022/07/10 15:29:12;;;;;;;;;;;;;;;;;;5057006;28;20296;-84
2022/07/10 15:31:38;;;;;;;;;;;;;;;;;;5058113;28;19921;-85
2022/07/10 15:34:08;;;;;;;;;;;;;;;;;;5057769;28;19920;-85
2022/07/10 15:36:33;;;;;;;;;;;;;;;;;;5058046;28;20331;-85
2022/07/10 15:38:59;;;;;;;;;;;;;;;;;;5056442;28;19923;-85
2022/07/10 15:41:25;;;;;;;;;;;;;;;;;;5056475;28;19916;-85
2022/07/10 15:43:51;;;;;;;;;;;;;;;;;;5057678;28;19937;-84
2022/07/10 15:46:16;;;;;;;;;;;;;;;;;;5056832;28;19928;-85
2022/07/10 15:48:42;;;;;;;;;;;;;;;;;;5057249;28;19921;-85
2022/07/10 15:51:07;;;;;;;;;;;;;;;;;;5057080;28;19923;-85
2022/07/10 15:53:33;;;;;;;;;;;;;;;;;;5056989;28;19940;-85
2022/07/10 15:55:58;;;;;;;;;;;;;;;;;;5056856;28;19913;-87
2022/07/10 15:58:24;;;;;;;;;;;;;;;;;;5057553;28;19920;-84
2022/07/10 16:00:49;;;;;;;;;;;;;;;;;;5055057;28;19939;-85
2022/07/10 16:03:14;;;;;;;;;;;;;;;;;;5057928;28;19924;-86
2022/07/10 16:05:41;;;;;;;;;;;;;;;;;;5062848;28;20388;-85
2022/07/10 16:08:06;;;;;;;;;;;;;;;;;;5068946;28;19925;-84
2022/07/10 16:10:32;;;;;;;;;;;;;;;;;;5065232;28;19943;-85
2022/07/10 16:12:57;;;;;;;;;;;;;;;;;;5062913;28;19921;-85
2022/07/10 16:15:22;;;;;;;;;;;;;;;;;;5075946;28;20007;-85
2022/07/10 16:17:48;;;;;;;;;;;;;;;;;;5069737;28;19971;-84
2022/07/10 16:20:14;;;;;;;;;;;;;;;;;;5063323;28;19920;-85
2022/07/10 16:22:41;;;;;;;;;;;;;;;;;;5062605;28;19944;-86
2022/07/10 16:27:50;;;;;;;;;;;;;;;;;;5063025;28;19974;-84
2022/07/10 16:30:15;;;;;;;;;;;;;;;;;;5066959;28;19967;-84
2022/07/10 16:32:41;;;;;;;;;;;;;;;;;;5055903;28;19991;-84
2022/07/10 16:35:07;;;;;;;;;;;;;;;;;;5056226;28;20369;-84
2022/07/10 16:37:32;;;;;;;;;;;;;;;;;;5067150;28;19923;-87
2022/07/10 16:39:58;;;;;;;;;;;;;;;;;;5075364;28;19917;-85
2022/07/10 16:42:25;;;;;;;;;;;;;;;;;;5076420;28;19916;-84
2022/07/10 16:44:50;;;;;;;;;;;;;;;;;;5075278;28;19916;-84
2022/07/10 16:47:16;;;;;;;;;;;;;;;;;;5076122;28;19924;-85
2022/07/10 16:49:41;;;;;;;;;;;;;;;;;;5074370;28;19920;-84
2022/07/10 16:52:07;;;;;;;;;;;;;;;;;;5076039;28;19934;-83
2022/07/10 16:54:33;;;;;;;;;;;;;;;;;;5077619;28;19965;-86
2022/07/10 16:56:58;;;;;;;;;;;;;;;;;;5079121;28;19936;-83
2022/07/10 16:59:23;;;;;;;;;;;;;;;;;;5075803;28;19916;-85